Bancroft, Maine
Current Conditions -  °F | °C
As of 1:53 AM on Sunday 26 Oct 2014 (Local Time) from KHUL Reporting Station
Light Rain Light Rain  
Wind Chill: 43°   Ceiling: 700
Heat Index: 43°   Visibility: 10mi
Dew Point: 40°   Wind: 3mph
Humidity: 89%   Direction: 160°SSE
Pressure: 29.43"   Gusts: NA
Location:  45.7877°N, 68.0764°W
Report Text: KHUL 260553Z AUTO 16003KT 10SM -RA OVC007 06/04 A2943 RMK AO2 RAB23 SLP970 P0000 60000 T00610044 10061 20039 56019
Loading
Personal Weather Stations






























Interactive Weather Map
Tropical Storm Tracking
New forecast layout! Learn more

10-Day Weather Forecast

Advertisements
Track Severe Weather on mobile